sensor_id;sensor_type;location;lat;lon;timestamp;P1;durP1;ratioP1;P2;durP2;ratioP2
32788;SDS011;19141;48.980;8.410;2022-08-01T04:22:48;6.70;;;4.20;;
32788;SDS011;19141;48.980;8.410;2022-08-01T04:25:15;6.05;;;3.92;;
32788;SDS011;19141;48.980;8.410;2022-08-01T04:27:47;7.03;;;3.00;;
32788;SDS011;19141;48.980;8.410;2022-08-01T04:30:14;6.68;;;3.55;;
32788;SDS011;19141;48.980;8.410;2022-08-01T04:32:43;8.80;;;3.95;;
32788;SDS011;19141;48.980;8.410;2022-08-01T04:35:11;5.20;;;3.28;;
32788;SDS011;19141;48.980;8.410;2022-08-01T04:37:41;5.43;;;3.45;;
32788;SDS011;19141;48.980;8.410;2022-08-01T04:40:09;7.18;;;3.40;;
32788;SDS011;19141;48.980;8.410;2022-08-01T04:42:36;5.38;;;3.63;;
32788;SDS011;19141;48.980;8.410;2022-08-01T04:45:02;4.32;;;3.00;;
32788;SDS011;19141;48.980;8.410;2022-08-01T04:47:27;8.98;;;2.90;;
32788;SDS011;19141;48.980;8.410;2022-08-01T04:52:21;4.78;;;3.35;;
32788;SDS011;19141;48.980;8.410;2022-08-01T04:54:47;4.53;;;3.33;;
32788;SDS011;19141;48.980;8.410;2022-08-01T04:57:12;4.55;;;3.03;;
32788;SDS011;19141;48.980;8.410;2022-08-01T04:59:38;4.45;;;3.53;;
32788;SDS011;19141;48.980;8.410;2022-08-01T05:02:08;4.18;;;3.40;;
32788;SDS011;19141;48.980;8.410;2022-08-01T05:07:01;4.30;;;2.80;;
32788;SDS011;19141;48.980;8.410;2022-08-01T05:09:26;4.88;;;3.08;;
32788;SDS011;19141;48.980;8.410;2022-08-01T05:11:52;4.28;;;3.40;;
32788;SDS011;19141;48.980;8.410;2022-08-01T05:14:18;3.72;;;3.17;;
32788;SDS011;19141;48.980;8.410;2022-08-01T05:16:44;5.45;;;3.70;;
32788;SDS011;19141;48.980;8.410;2022-08-01T05:19:09;4.22;;;3.33;;
32788;SDS011;19141;48.980;8.410;2022-08-01T05:21:35;4.72;;;3.53;;
32788;SDS011;19141;48.980;8.410;2022-08-01T05:24:01;4.50;;;3.38;;
32788;SDS011;19141;48.980;8.410;2022-08-01T05:26:27;3.92;;;3.00;;
32788;SDS011;19141;48.980;8.410;2022-08-01T05:28:52;4.68;;;3.30;;
32788;SDS011;19141;48.980;8.410;2022-08-01T05:31:18;5.95;;;3.08;;
32788;SDS011;19141;48.980;8.410;2022-08-01T05:33:43;4.75;;;3.28;;
32788;SDS011;19141;48.980;8.410;2022-08-01T05:36:09;5.47;;;3.80;;
32788;SDS011;19141;48.980;8.410;2022-08-01T05:38:34;3.92;;;3.13;;
32788;SDS011;19141;48.980;8.410;2022-08-01T05:41:00;7.45;;;3.35;;
32788;SDS011;19141;48.980;8.410;2022-08-01T05:43:26;5.70;;;3.42;;
32788;SDS011;19141;48.980;8.410;2022-08-01T05:45:51;3.80;;;2.80;;
32788;SDS011;19141;48.980;8.410;2022-08-01T05:48:16;3.72;;;3.00;;
32788;SDS011;19141;48.980;8.410;2022-08-01T05:50:42;4.10;;;3.25;;
32788;SDS011;19141;48.980;8.410;2022-08-01T05:53:07;7.40;;;4.10;;
32788;SDS011;19141;48.980;8.410;2022-08-01T05:55:33;3.95;;;2.80;;
32788;SDS011;19141;48.980;8.410;2022-08-01T05:57:59;4.68;;;2.80;;
32788;SDS011;19141;48.980;8.410;2022-08-01T06:00:24;8.02;;;3.10;;
32788;SDS011;19141;48.980;8.410;2022-08-01T06:02:50;4.22;;;2.70;;
32788;SDS011;19141;48.980;8.410;2022-08-01T06:05:15;6.25;;;3.55;;
32788;SDS011;19141;48.980;8.410;2022-08-01T06:07:41;5.70;;;3.40;;
32788;SDS011;19141;48.980;8.410;2022-08-01T06:10:07;7.22;;;3.33;;
32788;SDS011;19141;48.980;8.410;2022-08-01T06:12:33;3.65;;;3.05;;
32788;SDS011;19141;48.980;8.410;2022-08-01T06:14:59;5.38;;;2.63;;
32788;SDS011;19141;48.980;8.410;2022-08-01T06:17:24;5.78;;;3.17;;
32788;SDS011;19141;48.980;8.410;2022-08-01T06:19:50;4.60;;;3.00;;
32788;SDS011;19141;48.980;8.410;2022-08-01T06:22:15;4.50;;;2.70;;
32788;SDS011;19141;48.980;8.410;2022-08-01T06:24:40;9.07;;;3.25;;
32788;SDS011;19141;48.980;8.410;2022-08-01T06:27:06;6.75;;;3.22;;
32788;SDS011;19141;48.980;8.410;2022-08-01T06:29:31;4.32;;;2.90;;
32788;SDS011;19141;48.980;8.410;2022-08-01T06:31:57;5.03;;;2.67;;
32788;SDS011;19141;48.980;8.410;2022-08-01T06:34:23;3.63;;;3.10;;
32788;SDS011;19141;48.980;8.410;2022-08-01T06:36:49;3.97;;;2.90;;
32788;SDS011;19141;48.980;8.410;2022-08-01T06:39:14;5.22;;;3.38;;
32788;SDS011;19141;48.980;8.410;2022-08-01T06:41:40;4.22;;;3.10;;
32788;SDS011;19141;48.980;8.410;2022-08-01T06:44:06;4.50;;;2.75;;
32788;SDS011;19141;48.980;8.410;2022-08-01T06:46:32;5.45;;;3.00;;
32788;SDS011;19141;48.980;8.410;2022-08-01T06:48:59;3.92;;;3.10;;
32788;SDS011;19141;48.980;8.410;2022-08-01T06:51:25;5.55;;;3.90;;
32788;SDS011;19141;48.980;8.410;2022-08-01T06:53:50;7.45;;;4.05;;
32788;SDS011;19141;48.980;8.410;2022-08-01T06:56:16;6.65;;;4.10;;
32788;SDS011;19141;48.980;8.410;2022-08-01T06:58:41;8.80;;;4.95;;
32788;SDS011;19141;48.980;8.410;2022-08-01T07:01:07;9.70;;;5.20;;
32788;SDS011;19141;48.980;8.410;2022-08-01T07:03:35;8.32;;;5.90;;
32788;SDS011;19141;48.980;8.410;2022-08-01T07:06:00;9.80;;;6.97;;
32788;SDS011;19141;48.980;8.410;2022-08-01T07:08:26;7.63;;;6.00;;
32788;SDS011;19141;48.980;8.410;2022-08-01T07:10:52;8.70;;;5.72;;
32788;SDS011;19141;48.980;8.410;2022-08-01T07:13:17;7.05;;;5.20;;
32788;SDS011;19141;48.980;8.410;2022-08-01T07:15:46;7.78;;;4.43;;
32788;SDS011;19141;48.980;8.410;2022-08-01T07:18:12;7.03;;;4.50;;
32788;SDS011;19141;48.980;8.410;2022-08-01T07:20:38;6.32;;;4.30;;
32788;SDS011;19141;48.980;8.410;2022-08-01T07:23:03;6.25;;;3.83;;
32788;SDS011;19141;48.980;8.410;2022-08-01T07:25:29;4.22;;;3.72;;
32788;SDS011;19141;48.980;8.410;2022-08-01T07:27:54;4.90;;;3.22;;
32788;SDS011;19141;48.980;8.410;2022-08-01T07:30:20;3.55;;;3.15;;
32788;SDS011;19141;48.980;8.410;2022-08-01T07:32:46;6.38;;;3.65;;
32788;SDS011;19141;48.980;8.410;2022-08-01T07:35:11;5.30;;;3.70;;
32788;SDS011;19141;48.980;8.410;2022-08-01T07:37:37;4.72;;;3.80;;
32788;SDS011;19141;48.980;8.410;2022-08-01T07:40:03;7.72;;;3.42;;
32788;SDS011;19141;48.980;8.410;2022-08-01T07:44:55;4.97;;;2.95;;
32788;SDS011;19141;48.980;8.410;2022-08-01T07:47:24;4.82;;;3.13;;
32788;SDS011;19141;48.980;8.410;2022-08-01T07:49:50;3.95;;;2.65;;
32788;SDS011;19141;48.980;8.410;2022-08-01T07:52:16;7.90;;;2.40;;
32788;SDS011;19141;48.980;8.410;2022-08-01T07:54:42;4.18;;;2.42;;
32788;SDS011;19141;48.980;8.410;2022-08-01T07:57:07;4.38;;;2.30;;
32788;SDS011;19141;48.980;8.410;2022-08-01T07:59:33;3.67;;;2.35;;
32788;SDS011;19141;48.980;8.410;2022-08-01T08:01:59;3.28;;;2.25;;
32788;SDS011;19141;48.980;8.410;2022-08-01T08:04:25;4.45;;;2.33;;
32788;SDS011;19141;48.980;8.410;2022-08-01T08:06:51;4.80;;;3.10;;
32788;SDS011;19141;48.980;8.410;2022-08-01T08:09:18;2.88;;;2.05;;
32788;SDS011;19141;48.980;8.410;2022-08-01T08:11:44;5.72;;;2.20;;
32788;SDS011;19141;48.980;8.410;2022-08-01T08:14:10;4.30;;;1.88;;
32788;SDS011;19141;48.980;8.410;2022-08-01T08:16:35;3.70;;;2.30;;
32788;SDS011;19141;48.980;8.410;2022-08-01T08:19:01;3.00;;;1.88;;
32788;SDS011;19141;48.980;8.410;2022-08-01T08:21:26;3.40;;;1.98;;
32788;SDS011;19141;48.980;8.410;2022-08-01T08:23:52;2.67;;;1.88;;
32788;SDS011;19141;48.980;8.410;2022-08-01T08:26:36;5.85;;;2.00;;
32788;SDS011;19141;48.980;8.410;2022-08-01T08:29:02;2.70;;;1.80;;
32788;SDS011;19141;48.980;8.410;2022-08-01T08:31:28;3.47;;;2.00;;
32788;SDS011;19141;48.980;8.410;2022-08-01T08:33:53;2.15;;;1.63;;
32788;SDS011;19141;48.980;8.410;2022-08-01T08:36:19;6.78;;;2.15;;
32788;SDS011;19141;48.980;8.410;2022-08-01T08:38:44;2.70;;;1.70;;
32788;SDS011;19141;48.980;8.410;2022-08-01T08:41:10;2.70;;;1.67;;
32788;SDS011;19141;48.980;8.410;2022-08-01T08:43:35;2.63;;;1.63;;
32788;SDS011;19141;48.980;8.410;2022-08-01T08:46:01;3.13;;;1.80;;
32788;SDS011;19141;48.980;8.410;2022-08-01T08:48:27;2.17;;;1.55;;
32788;SDS011;19141;48.980;8.410;2022-08-01T08:50:55;3.22;;;1.77;;
32788;SDS011;19141;48.980;8.410;2022-08-01T08:53:22;2.85;;;2.10;;
32788;SDS011;19141;48.980;8.410;2022-08-01T08:55:48;4.10;;;1.88;;
32788;SDS011;19141;48.980;8.410;2022-08-01T08:58:15;3.10;;;2.10;;
32788;SDS011;19141;48.980;8.410;2022-08-01T09:00:43;2.38;;;1.63;;
32788;SDS011;19141;48.980;8.410;2022-08-01T09:03:08;2.63;;;1.70;;
32788;SDS011;19141;48.980;8.410;2022-08-01T09:05:34;2.42;;;1.55;;
32788;SDS011;19141;48.980;8.410;2022-08-01T09:07:59;2.70;;;2.03;;
32788;SDS011;19141;48.980;8.410;2022-08-01T09:10:25;2.97;;;2.05;;
32788;SDS011;19141;48.980;8.410;2022-08-01T09:15:39;2.55;;;1.58;;
32788;SDS011;19141;48.980;8.410;2022-08-01T09:21:07;2.38;;;1.80;;
32788;SDS011;19141;48.980;8.410;2022-08-01T09:23:45;3.28;;;1.88;;
32788;SDS011;19141;48.980;8.410;2022-08-01T09:26:19;1.60;;;1.48;;
32788;SDS011;19141;48.980;8.410;2022-08-01T09:28:47;2.97;;;1.50;;
32788;SDS011;19141;48.980;8.410;2022-08-01T09:31:13;2.00;;;1.40;;
32788;SDS011;19141;48.980;8.410;2022-08-01T09:36:20;2.33;;;1.40;;
32788;SDS011;19141;48.980;8.410;2022-08-01T09:38:47;2.00;;;1.67;;
32788;SDS011;19141;48.980;8.410;2022-08-01T09:41:13;2.38;;;2.00;;
32788;SDS011;19141;48.980;8.410;2022-08-01T09:43:38;4.07;;;1.75;;
32788;SDS011;19141;48.980;8.410;2022-08-01T09:46:05;2.58;;;1.83;;
32788;SDS011;19141;48.980;8.410;2022-08-01T09:48:36;2.35;;;1.90;;
32788;SDS011;19141;48.980;8.410;2022-08-01T09:51:04;2.10;;;1.90;;
32788;SDS011;19141;48.980;8.410;2022-08-01T09:53:41;2.53;;;1.58;;
32788;SDS011;19141;48.980;8.410;2022-08-01T09:56:12;1.88;;;1.45;;
32788;SDS011;19141;48.980;8.410;2022-08-01T10:01:20;2.80;;;1.80;;
32788;SDS011;19141;48.980;8.410;2022-08-01T10:03:47;2.80;;;1.65;;
32788;SDS011;19141;48.980;8.410;2022-08-01T10:06:29;4.88;;;2.40;;
32788;SDS011;19141;48.980;8.410;2022-08-01T10:08:55;5.65;;;2.55;;
32788;SDS011;19141;48.980;8.410;2022-08-01T10:11:20;3.78;;;2.13;;
32788;SDS011;19141;48.980;8.410;2022-08-01T10:13:46;2.90;;;2.30;;
32788;SDS011;19141;48.980;8.410;2022-08-01T10:16:13;2.70;;;2.38;;
32788;SDS011;19141;48.980;8.410;2022-08-01T10:18:40;2.85;;;2.40;;
32788;SDS011;19141;48.980;8.410;2022-08-01T10:21:06;3.17;;;1.90;;
32788;SDS011;19141;48.980;8.410;2022-08-01T10:23:36;7.00;;;4.78;;
32788;SDS011;19141;48.980;8.410;2022-08-01T10:26:03;2.83;;;2.20;;
32788;SDS011;19141;48.980;8.410;2022-08-01T10:28:30;3.08;;;2.17;;
32788;SDS011;19141;48.980;8.410;2022-08-01T10:30:56;4.45;;;2.95;;
32788;SDS011;19141;48.980;8.410;2022-08-01T10:33:23;3.22;;;2.00;;
32788;SDS011;19141;48.980;8.410;2022-08-01T10:35:49;2.67;;;2.17;;
32788;SDS011;19141;48.980;8.410;2022-08-01T10:38:16;1.65;;;1.45;;
32788;SDS011;19141;48.980;8.410;2022-08-01T10:40:42;3.78;;;1.90;;
32788;SDS011;19141;48.980;8.410;2022-08-01T10:43:12;2.53;;;1.85;;
32788;SDS011;19141;48.980;8.410;2022-08-01T10:45:39;4.38;;;1.70;;
32788;SDS011;19141;48.980;8.410;2022-08-01T10:48:24;2.45;;;1.70;;
32788;SDS011;19141;48.980;8.410;2022-08-01T10:51:21;2.88;;;1.60;;
32788;SDS011;19141;48.980;8.410;2022-08-01T10:56:18;2.95;;;2.15;;
32788;SDS011;19141;48.980;8.410;2022-08-01T10:58:46;2.85;;;1.90;;
32788;SDS011;19141;48.980;8.410;2022-08-01T11:03:37;2.55;;;2.10;;
32788;SDS011;19141;48.980;8.410;2022-08-01T11:06:03;2.03;;;1.83;;
32788;SDS011;19141;48.980;8.410;2022-08-01T11:08:28;2.53;;;1.50;;
32788;SDS011;19141;48.980;8.410;2022-08-01T11:11:02;3.22;;;1.77;;
32788;SDS011;19141;48.980;8.410;2022-08-01T11:14:00;2.53;;;1.70;;
32788;SDS011;19141;48.980;8.410;2022-08-01T11:16:26;1.90;;;1.70;;
32788;SDS011;19141;48.980;8.410;2022-08-01T11:18:56;4.63;;;2.40;;
32788;SDS011;19141;48.980;8.410;2022-08-01T11:21:21;6.68;;;3.40;;
32788;SDS011;19141;48.980;8.410;2022-08-01T11:23:51;4.60;;;3.22;;
32788;SDS011;19141;48.980;8.410;2022-08-01T11:28:44;2.40;;;1.80;;
32788;SDS011;19141;48.980;8.410;2022-08-01T11:31:31;4.13;;;2.25;;
32788;SDS011;19141;48.980;8.410;2022-08-01T11:33:57;3.55;;;2.13;;
32788;SDS011;19141;48.980;8.410;2022-08-01T11:36:24;2.72;;;1.95;;
32788;SDS011;19141;48.980;8.410;2022-08-01T11:39:10;2.47;;;2.00;;
32788;SDS011;19141;48.980;8.410;2022-08-01T11:41:37;2.47;;;1.80;;
32788;SDS011;19141;48.980;8.410;2022-08-01T11:44:09;1.73;;;1.52;;
32788;SDS011;19141;48.980;8.410;2022-08-01T11:54:55;1.50;;;1.40;;
32788;SDS011;19141;48.980;8.410;2022-08-01T11:57:30;3.13;;;1.40;;
32788;SDS011;19141;48.980;8.410;2022-08-01T12:00:00;2.08;;;1.58;;
32788;SDS011;19141;48.980;8.410;2022-08-01T12:02:39;1.85;;;1.23;;
32788;SDS011;19141;48.980;8.410;2022-08-01T12:07:35;1.60;;;1.30;;
32788;SDS011;19141;48.980;8.410;2022-08-01T12:10:14;3.72;;;1.40;;
32788;SDS011;19141;48.980;8.410;2022-08-01T12:12:45;2.30;;;1.70;;
32788;SDS011;19141;48.980;8.410;2022-08-01T12:15:12;2.08;;;1.88;;
32788;SDS011;19141;48.980;8.410;2022-08-01T12:17:39;2.13;;;1.60;;
32788;SDS011;19141;48.980;8.410;2022-08-01T12:20:07;1.83;;;1.40;;
32788;SDS011;19141;48.980;8.410;2022-08-01T12:22:37;2.05;;;1.35;;
32788;SDS011;19141;48.980;8.410;2022-08-01T12:27:32;1.60;;;1.50;;
32788;SDS011;19141;48.980;8.410;2022-08-01T12:29:59;1.50;;;1.30;;
32788;SDS011;19141;48.980;8.410;2022-08-01T12:32:26;2.22;;;1.25;;
32788;SDS011;19141;48.980;8.410;2022-08-01T12:35:01;1.70;;;1.15;;
32788;SDS011;19141;48.980;8.410;2022-08-01T12:37:27;2.50;;;1.40;;
32788;SDS011;19141;48.980;8.410;2022-08-01T12:39:53;3.03;;;1.30;;
32788;SDS011;19141;48.980;8.410;2022-08-01T12:42:18;1.40;;;1.30;;
32788;SDS011;19141;48.980;8.410;2022-08-01T12:44:45;1.83;;;1.38;;
32788;SDS011;19141;48.980;8.410;2022-08-01T12:47:14;1.38;;;1.13;;
32788;SDS011;19141;48.980;8.410;2022-08-01T12:49:41;1.40;;;1.25;;
32788;SDS011;19141;48.980;8.410;2022-08-01T12:52:08;1.05;;;0.95;;
32788;SDS011;19141;48.980;8.410;2022-08-01T12:57:25;1.52;;;1.35;;
32788;SDS011;19141;48.980;8.410;2022-08-01T13:00:07;3.07;;;1.30;;
32788;SDS011;19141;48.980;8.410;2022-08-01T13:02:38;1.30;;;1.20;;
32788;SDS011;19141;48.980;8.410;2022-08-01T13:05:05;1.40;;;1.15;;
32788;SDS011;19141;48.980;8.410;2022-08-01T13:08:08;4.95;;;1.50;;
32788;SDS011;19141;48.980;8.410;2022-08-01T13:10:25;1.63;;;1.52;;
32788;SDS011;19141;48.980;8.410;2022-08-01T13:12:54;1.67;;;1.00;;
32788;SDS011;19141;48.980;8.410;2022-08-01T13:17:48;1.98;;;1.05;;
32788;SDS011;19141;48.980;8.410;2022-08-01T13:20:23;3.77;;;1.13;;
32788;SDS011;19141;48.980;8.410;2022-08-01T13:23:18;1.75;;;1.20;;
32788;SDS011;19141;48.980;8.410;2022-08-01T13:25:46;2.50;;;1.30;;
32788;SDS011;19141;48.980;8.410;2022-08-01T13:28:18;2.13;;;1.10;;
32788;SDS011;19141;48.980;8.410;2022-08-01T13:31:01;1.00;;;0.90;;
32788;SDS011;19141;48.980;8.410;2022-08-01T13:33:44;1.67;;;1.10;;
32788;SDS011;19141;48.980;8.410;2022-08-01T13:36:12;2.30;;;1.00;;
32788;SDS011;19141;48.980;8.410;2022-08-01T13:38:38;2.97;;;1.20;;
32788;SDS011;19141;48.980;8.410;2022-08-01T13:41:23;3.22;;;1.15;;
32788;SDS011;19141;48.980;8.410;2022-08-01T13:43:48;1.10;;;1.00;;
32788;SDS011;19141;48.980;8.410;2022-08-01T13:46:14;1.63;;;0.90;;
32788;SDS011;19141;48.980;8.410;2022-08-01T13:48:40;1.03;;;0.83;;
32788;SDS011;19141;48.980;8.410;2022-08-01T13:51:05;1.23;;;1.00;;
32788;SDS011;19141;48.980;8.410;2022-08-01T13:53:30;1.13;;;0.73;;
32788;SDS011;19141;48.980;8.410;2022-08-01T13:55:56;2.57;;;0.93;;
32788;SDS011;19141;48.980;8.410;2022-08-01T13:58:22;1.43;;;1.00;;
32788;SDS011;19141;48.980;8.410;2022-08-01T14:00:47;1.40;;;0.90;;
32788;SDS011;19141;48.980;8.410;2022-08-01T14:03:13;0.90;;;0.90;;
32788;SDS011;19141;48.980;8.410;2022-08-01T14:05:39;0.90;;;0.70;;
32788;SDS011;19141;48.980;8.410;2022-08-01T14:08:05;1.23;;;1.00;;
32788;SDS011;19141;48.980;8.410;2022-08-01T14:10:31;1.63;;;0.93;;
32788;SDS011;19141;48.980;8.410;2022-08-01T14:12:56;2.57;;;1.63;;
32788;SDS011;19141;48.980;8.410;2022-08-01T14:15:23;1.10;;;1.00;;
32788;SDS011;19141;48.980;8.410;2022-08-01T14:17:48;1.37;;;1.27;;
32788;SDS011;19141;48.980;8.410;2022-08-01T14:20:14;2.78;;;1.40;;
32788;SDS011;19141;48.980;8.410;2022-08-01T14:22:39;4.97;;;3.67;;
32788;SDS011;19141;48.980;8.410;2022-08-01T14:25:05;1.42;;;1.10;;
32788;SDS011;19141;48.980;8.410;2022-08-01T14:27:31;2.90;;;2.53;;
32788;SDS011;19141;48.980;8.410;2022-08-01T14:30:01;3.22;;;2.10;;
32788;SDS011;19141;48.980;8.410;2022-08-01T14:32:27;2.67;;;1.95;;
32788;SDS011;19141;48.980;8.410;2022-08-01T14:34:53;2.47;;;1.83;;
32788;SDS011;19141;48.980;8.410;2022-08-01T14:37:18;1.88;;;1.35;;
32788;SDS011;19141;48.980;8.410;2022-08-01T14:39:44;1.60;;;1.00;;
32788;SDS011;19141;48.980;8.410;2022-08-01T14:42:09;1.67;;;1.38;;
32788;SDS011;19141;48.980;8.410;2022-08-01T14:44:35;0.82;;;0.82;;
32788;SDS011;19141;48.980;8.410;2022-08-01T14:47:00;1.65;;;1.02;;
32788;SDS011;19141;48.980;8.410;2022-08-01T14:49:25;1.73;;;1.27;;
32788;SDS011;19141;48.980;8.410;2022-08-01T14:51:51;1.10;;;0.90;;
32788;SDS011;19141;48.980;8.410;2022-08-01T14:54:16;0.95;;;0.88;;
32788;SDS011;19141;48.980;8.410;2022-08-01T14:56:42;1.67;;;1.00;;
32788;SDS011;19141;48.980;8.410;2022-08-01T14:59:07;2.25;;;1.00;;
32788;SDS011;19141;48.980;8.410;2022-08-01T15:01:32;1.88;;;1.20;;
32788;SDS011;19141;48.980;8.410;2022-08-01T15:03:58;0.80;;;0.80;;
32788;SDS011;19141;48.980;8.410;2022-08-01T15:06:23;0.90;;;0.82;;
32788;SDS011;19141;48.980;8.410;2022-08-01T15:08:49;2.30;;;1.20;;
32788;SDS011;19141;48.980;8.410;2022-08-01T15:11:14;2.15;;;1.05;;
32788;SDS011;19141;48.980;8.410;2022-08-01T15:13:40;1.67;;;1.05;;
32788;SDS011;19141;48.980;8.410;2022-08-01T15:16:05;1.20;;;0.85;;
32788;SDS011;19141;48.980;8.410;2022-08-01T15:18:31;2.03;;;1.00;;
32788;SDS011;19141;48.980;8.410;2022-08-01T15:20:56;2.38;;;0.95;;
32788;SDS011;19141;48.980;8.410;2022-08-01T15:23:22;2.38;;;1.00;;
32788;SDS011;19141;48.980;8.410;2022-08-01T15:25:47;2.35;;;0.70;;
32788;SDS011;19141;48.980;8.410;2022-08-01T15:28:13;2.63;;;1.10;;
32788;SDS011;19141;48.980;8.410;2022-08-01T15:30:39;1.95;;;1.00;;
32788;SDS011;19141;48.980;8.410;2022-08-01T15:33:04;3.90;;;1.02;;
32788;SDS011;19141;48.980;8.410;2022-08-01T15:35:30;1.83;;;0.90;;
32788;SDS011;19141;48.980;8.410;2022-08-01T15:37:56;4.03;;;1.08;;
32788;SDS011;19141;48.980;8.410;2022-08-01T15:40:22;1.83;;;0.85;;
32788;SDS011;19141;48.980;8.410;2022-08-01T15:42:47;2.83;;;0.90;;
32788;SDS011;19141;48.980;8.410;2022-08-01T15:45:13;1.10;;;1.00;;
32788;SDS011;19141;48.980;8.410;2022-08-01T15:47:42;2.25;;;0.90;;
32788;SDS011;19141;48.980;8.410;2022-08-01T15:50:08;1.52;;;1.00;;
32788;SDS011;19141;48.980;8.410;2022-08-01T15:52:34;2.97;;;1.10;;
32788;SDS011;19141;48.980;8.410;2022-08-01T15:54:59;2.35;;;1.02;;
32788;SDS011;19141;48.980;8.410;2022-08-01T15:57:25;5.30;;;0.80;;
32788;SDS011;19141;48.980;8.410;2022-08-01T15:59:50;1.38;;;0.93;;
32788;SDS011;19141;48.980;8.410;2022-08-01T16:02:16;1.73;;;1.00;;
32788;SDS011;19141;48.980;8.410;2022-08-01T16:04:41;1.20;;;0.73;;
32788;SDS011;19141;48.980;8.410;2022-08-01T16:07:07;3.13;;;1.95;;
32788;SDS011;19141;48.980;8.410;2022-08-01T16:09:32;2.08;;;1.17;;
32788;SDS011;19141;48.980;8.410;2022-08-01T16:11:58;2.75;;;1.00;;
32788;SDS011;19141;48.980;8.410;2022-08-01T16:14:24;1.58;;;1.08;;
32788;SDS011;19141;48.980;8.410;2022-08-01T16:16:49;1.45;;;1.15;;
32788;SDS011;19141;48.980;8.410;2022-08-01T16:19:15;2.17;;;1.10;;
32788;SDS011;19141;48.980;8.410;2022-08-01T16:21:41;2.10;;;1.10;;
32788;SDS011;19141;48.980;8.410;2022-08-01T16:24:06;1.30;;;1.10;;
32788;SDS011;19141;48.980;8.410;2022-08-01T16:26:32;2.72;;;1.55;;
32788;SDS011;19141;48.980;8.410;2022-08-01T16:28:57;3.53;;;2.47;;
32788;SDS011;19141;48.980;8.410;2022-08-01T16:31:23;1.40;;;0.90;;
32788;SDS011;19141;48.980;8.410;2022-08-01T16:33:48;1.83;;;1.42;;
32788;SDS011;19141;48.980;8.410;2022-08-01T16:36:15;3.17;;;1.90;;
32788;SDS011;19141;48.980;8.410;2022-08-01T16:38:40;1.67;;;0.98;;
32788;SDS011;19141;48.980;8.410;2022-08-01T16:41:07;1.85;;;1.27;;
32788;SDS011;19141;48.980;8.410;2022-08-01T16:43:33;1.67;;;1.35;;
32788;SDS011;19141;48.980;8.410;2022-08-01T16:45:58;2.47;;;1.20;;
32788;SDS011;19141;48.980;8.410;2022-08-01T16:48:24;1.48;;;1.15;;
32788;SDS011;19141;48.980;8.410;2022-08-01T16:50:50;4.43;;;2.13;;
32788;SDS011;19141;48.980;8.410;2022-08-01T16:53:20;1.65;;;0.95;;
32788;SDS011;19141;48.980;8.410;2022-08-01T16:55:47;2.25;;;1.10;;
32788;SDS011;19141;48.980;8.410;2022-08-01T16:58:14;0.90;;;0.80;;
32788;SDS011;19141;48.980;8.410;2022-08-01T17:00:40;2.95;;;1.17;;
32788;SDS011;19141;48.980;8.410;2022-08-01T17:03:10;2.95;;;0.98;;
32788;SDS011;19141;48.980;8.410;2022-08-01T17:05:36;2.30;;;1.38;;
32788;SDS011;19141;48.980;8.410;2022-08-01T17:08:03;1.67;;;1.20;;
32788;SDS011;19141;48.980;8.410;2022-08-01T17:10:32;1.77;;;0.80;;
32788;SDS011;19141;48.980;8.410;2022-08-01T17:12:58;1.20;;;0.93;;
32788;SDS011;19141;48.980;8.410;2022-08-01T17:15:24;5.88;;;1.00;;
32788;SDS011;19141;48.980;8.410;2022-08-01T17:17:49;1.15;;;0.98;;
32788;SDS011;19141;48.980;8.410;2022-08-01T17:20:17;1.65;;;0.95;;
32788;SDS011;19141;48.980;8.410;2022-08-01T17:22:42;1.67;;;1.10;;
32788;SDS011;19141;48.980;8.410;2022-08-01T17:25:08;1.65;;;1.20;;
32788;SDS011;19141;48.980;8.410;2022-08-01T17:27:34;2.25;;;1.50;;
32788;SDS011;19141;48.980;8.410;2022-08-01T17:29:59;2.97;;;1.35;;
32788;SDS011;19141;48.980;8.410;2022-08-01T17:32:24;2.70;;;1.20;;
32788;SDS011;19141;48.980;8.410;2022-08-01T17:34:50;1.92;;;1.10;;
32788;SDS011;19141;48.980;8.410;2022-08-01T17:37:15;18.92;;;8.93;;
32788;SDS011;19141;48.980;8.410;2022-08-01T17:39:41;5.07;;;3.00;;
32788;SDS011;19141;48.980;8.410;2022-08-01T17:42:07;3.22;;;1.83;;
32788;SDS011;19141;48.980;8.410;2022-08-01T17:44:33;2.13;;;1.15;;
32788;SDS011;19141;48.980;8.410;2022-08-01T17:46:58;1.98;;;1.08;;
32788;SDS011;19141;48.980;8.410;2022-08-01T17:49:24;1.52;;;1.20;;
32788;SDS011;19141;48.980;8.410;2022-08-01T17:51:50;3.67;;;1.83;;
32788;SDS011;19141;48.980;8.410;2022-08-01T17:54:16;3.83;;;2.90;;
32788;SDS011;19141;48.980;8.410;2022-08-01T17:56:41;16.35;;;14.85;;
32788;SDS011;19141;48.980;8.410;2022-08-01T17:59:07;7.55;;;5.97;;
32788;SDS011;19141;48.980;8.410;2022-08-01T18:01:32;1.50;;;1.20;;
32788;SDS011;19141;48.980;8.410;2022-08-01T18:04:00;2.17;;;1.40;;
32788;SDS011;19141;48.980;8.410;2022-08-01T18:06:25;1.45;;;1.00;;
32788;SDS011;19141;48.980;8.410;2022-08-01T18:08:52;3.10;;;1.48;;
32788;SDS011;19141;48.980;8.410;2022-08-01T18:11:18;2.90;;;1.38;;
32788;SDS011;19141;48.980;8.410;2022-08-01T18:13:44;1.88;;;1.15;;
32788;SDS011;19141;48.980;8.410;2022-08-01T18:16:09;1.48;;;1.00;;
32788;SDS011;19141;48.980;8.410;2022-08-01T18:21:03;0.93;;;0.80;;
32788;SDS011;19141;48.980;8.410;2022-08-01T18:23:29;1.20;;;0.90;;
32788;SDS011;19141;48.980;8.410;2022-08-01T18:25:57;1.92;;;1.50;;
32788;SDS011;19141;48.980;8.410;2022-08-01T18:28:25;1.15;;;0.90;;
32788;SDS011;19141;48.980;8.410;2022-08-01T18:33:18;2.25;;;1.23;;
32788;SDS011;19141;48.980;8.410;2022-08-01T18:35:43;1.58;;;1.10;;
32788;SDS011;19141;48.980;8.410;2022-08-01T18:38:09;3.33;;;1.00;;
32788;SDS011;19141;48.980;8.410;2022-08-01T18:40:34;1.00;;;0.75;;
32788;SDS011;19141;48.980;8.410;2022-08-01T18:43:00;4.95;;;2.70;;
32788;SDS011;19141;48.980;8.410;2022-08-01T18:45:25;8.88;;;1.10;;
32788;SDS011;19141;48.980;8.410;2022-08-01T18:47:51;1.67;;;1.40;;
32788;SDS011;19141;48.980;8.410;2022-08-01T18:50:18;3.43;;;1.50;;
32788;SDS011;19141;48.980;8.410;2022-08-01T18:52:43;2.40;;;1.20;;
32788;SDS011;19141;48.980;8.410;2022-08-01T18:55:09;3.75;;;1.05;;
32788;SDS011;19141;48.980;8.410;2022-08-01T18:57:34;1.88;;;0.95;;
32788;SDS011;19141;48.980;8.410;2022-08-01T19:00:00;2.53;;;0.80;;
32788;SDS011;19141;48.980;8.410;2022-08-01T19:02:26;0.93;;;0.80;;
32788;SDS011;19141;48.980;8.410;2022-08-01T19:04:52;1.58;;;0.80;;
32788;SDS011;19141;48.980;8.410;2022-08-01T19:07:18;1.08;;;0.75;;
32788;SDS011;19141;48.980;8.410;2022-08-01T19:09:44;3.47;;;1.00;;
32788;SDS011;19141;48.980;8.410;2022-08-01T19:12:09;3.03;;;1.00;;
32788;SDS011;19141;48.980;8.410;2022-08-01T19:14:35;1.83;;;0.70;;
32788;SDS011;19141;48.980;8.410;2022-08-01T19:17:00;2.30;;;0.95;;
32788;SDS011;19141;48.980;8.410;2022-08-01T19:19:25;2.42;;;0.98;;
32788;SDS011;19141;48.980;8.410;2022-08-01T19:21:51;1.23;;;0.80;;
32788;SDS011;19141;48.980;8.410;2022-08-01T19:24:16;1.05;;;0.70;;
32788;SDS011;19141;48.980;8.410;2022-08-01T19:26:49;1.63;;;0.75;;
32788;SDS011;19141;48.980;8.410;2022-08-01T19:29:31;1.63;;;1.08;;
32788;SDS011;19141;48.980;8.410;2022-08-01T19:31:59;1.05;;;0.90;;
32788;SDS011;19141;48.980;8.410;2022-08-01T19:34:25;2.60;;;1.08;;
32788;SDS011;19141;48.980;8.410;2022-08-01T19:36:54;1.50;;;1.00;;
32788;SDS011;19141;48.980;8.410;2022-08-01T19:39:21;2.15;;;0.90;;
32788;SDS011;19141;48.980;8.410;2022-08-01T19:41:50;1.10;;;0.90;;
32788;SDS011;19141;48.980;8.410;2022-08-01T19:44:19;1.33;;;0.90;;
32788;SDS011;19141;48.980;8.410;2022-08-01T19:46:47;2.38;;;0.80;;
32788;SDS011;19141;48.980;8.410;2022-08-01T19:49:13;2.30;;;0.80;;
32788;SDS011;19141;48.980;8.410;2022-08-01T19:51:40;1.52;;;0.95;;
32788;SDS011;19141;48.980;8.410;2022-08-01T19:54:09;2.17;;;1.10;;
32788;SDS011;19141;48.980;8.410;2022-08-01T19:56:43;2.97;;;0.98;;
32788;SDS011;19141;48.980;8.410;2022-08-01T19:59:17;1.48;;;1.05;;